createdAt,value
2022-09-05T00:02:02.289Z,61.86
2022-09-05T00:04:47.602Z,61.90
2022-09-05T00:07:58.011Z,62.19
2022-09-05T00:10:23.707Z,61.96
2022-09-05T00:13:06.847Z,61.98
2022-09-05T00:15:37.416Z,61.88
2022-09-05T00:24:17.162Z,61.99
2022-09-05T00:24:27.648Z,61.81
2022-09-05T00:24:35.702Z,61.88
2022-09-05T00:26:50.607Z,62.06
2022-09-05T00:31:08.222Z,61.96
2022-09-05T00:32:26.448Z,62.12
2022-09-05T00:35:13.176Z,61.93
2022-09-05T00:37:39.573Z,62.03
2022-09-05T00:40:27.457Z,61.78
2022-09-05T00:42:55.933Z,61.97
2022-09-05T00:45:27.434Z,61.65
2022-09-05T00:48:20.000Z,61.66
2022-09-05T00:50:55.370Z,61.84
2022-09-05T00:53:39.190Z,61.67
2022-09-05T00:56:24.035Z,61.69
2022-09-05T00:59:09.904Z,61.68
2022-09-05T01:01:36.339Z,61.86
2022-09-05T01:04:05.777Z,61.78
2022-09-05T01:06:44.154Z,61.30
2022-09-05T01:09:19.839Z,61.73
2022-09-05T01:12:01.458Z,61.29
2022-09-05T01:14:46.792Z,61.40
2022-09-05T01:17:13.180Z,61.42
2022-09-05T01:19:51.985Z,61.54
2022-09-05T01:22:38.229Z,61.72
2022-09-05T01:25:23.490Z,61.53
2022-09-05T01:29:17.249Z,61.51
2022-09-05T01:31:08.671Z,61.71
2022-09-05T01:33:54.183Z,61.36
2022-09-05T01:36:30.212Z,61.59
2022-09-05T01:40:11.950Z,61.57
2022-09-05T01:42:08.360Z,61.60
2022-09-05T01:44:55.355Z,61.43
2022-09-05T01:47:30.803Z,61.41
2022-09-05T01:50:06.682Z,61.44
2022-09-05T01:52:57.778Z,61.53
2022-09-05T01:56:02.518Z,61.54
2022-09-05T01:58:40.840Z,61.27
2022-09-05T02:01:25.434Z,61.39
2022-09-05T02:04:04.563Z,61.37
2022-09-05T02:06:44.098Z,61.35
2022-09-05T02:09:28.855Z,61.10
2022-09-05T02:12:02.336Z,61.35
2022-09-05T02:14:37.931Z,61.14
2022-09-05T02:17:25.848Z,61.18
2022-09-05T02:20:01.988Z,61.12
2022-09-05T02:22:34.111Z,61.34
2022-09-05T02:25:30.154Z,61.21
2022-09-05T02:28:05.482Z,61.12
2022-09-05T02:30:38.551Z,61.36
2022-09-05T02:33:15.779Z,61.17
2022-09-05T02:35:45.948Z,61.53
2022-09-05T02:40:21.966Z,61.23
2022-09-05T02:45:03.377Z,61.07
2022-09-05T02:45:06.153Z,61.17
2022-09-05T02:47:00.981Z,61.15
2022-09-05T02:51:09.615Z,61.24
2022-09-05T02:57:25.188Z,61.12
2022-09-05T02:57:42.661Z,60.99
2022-09-05T02:58:59.312Z,61.21
2022-09-05T03:01:40.023Z,61.21
2022-09-05T03:04:18.299Z,61.41
2022-09-05T03:06:50.743Z,61.52
2022-09-05T03:09:40.402Z,61.35
2022-09-05T03:12:18.988Z,61.55
2022-09-05T03:15:22.256Z,61.32
2022-09-05T03:18:21.151Z,61.45
2022-09-05T03:20:51.309Z,61.11
2022-09-05T03:23:38.652Z,61.22
2022-09-05T03:26:23.056Z,61.20
2022-09-05T03:29:01.362Z,61.28
2022-09-05T03:31:46.783Z,61.30
2022-09-05T03:34:16.199Z,61.31
2022-09-05T03:37:01.140Z,61.38
2022-09-05T03:39:42.620Z,61.43
2022-09-05T03:42:14.702Z,61.28
2022-09-05T03:44:44.411Z,61.15
2022-09-05T03:47:29.702Z,61.16
2022-09-05T03:53:49.672Z,61.47
2022-09-05T03:57:16.805Z,61.06
2022-09-05T03:57:25.814Z,61.32
2022-09-05T03:59:35.921Z,61.16
2022-09-05T04:07:12.035Z,61.21
2022-09-05T04:08:25.311Z,61.46
2022-09-05T04:08:34.208Z,61.53
2022-09-05T04:11:01.581Z,61.37
2022-09-05T04:13:48.303Z,61.12
2022-09-05T04:16:30.521Z,61.01
2022-09-05T04:19:08.465Z,60.95
2022-09-05T04:21:36.739Z,60.67
2022-09-05T04:24:03.175Z,60.54
2022-09-05T04:26:41.755Z,60.63
2022-09-05T04:29:15.169Z,60.52
2022-09-05T04:32:18.396Z,60.53
2022-09-05T04:34:45.604Z,60.70
2022-09-05T04:37:47.869Z,60.73
2022-09-05T04:40:34.338Z,60.58
2022-09-05T04:43:05.791Z,60.47
2022-09-05T04:45:35.450Z,60.70
2022-09-05T04:48:02.934Z,60.63
2022-09-05T04:50:37.787Z,60.63
2022-09-05T04:53:20.176Z,60.60
2022-09-05T04:55:50.690Z,60.45
2022-09-05T04:58:43.644Z,60.58
2022-09-05T05:05:59.772Z,60.68
2022-09-05T05:06:11.396Z,60.69
2022-09-05T05:07:16.820Z,60.74
2022-09-05T05:10:05.896Z,60.72
2022-09-05T05:17:55.746Z,60.99
2022-09-05T05:18:12.356Z,60.96
2022-09-05T05:18:56.521Z,60.90
2022-09-05T05:21:30.407Z,60.89
2022-09-05T05:23:58.956Z,60.99
2022-09-05T05:26:32.147Z,60.90
2022-09-05T05:28:58.500Z,60.94
2022-09-05T05:31:28.630Z,60.94
2022-09-05T05:33:58.231Z,60.86
2022-09-05T05:36:39.682Z,61.07
2022-09-05T05:39:21.110Z,60.85
2022-09-05T05:41:50.232Z,61.15
2022-09-05T05:44:19.278Z,61.01
2022-09-05T05:46:58.205Z,60.93
2022-09-05T05:49:27.534Z,61.06
2022-09-05T05:52:05.431Z,61.01
2022-09-05T05:54:45.769Z,61.09
2022-09-05T05:57:32.988Z,61.12
2022-09-05T06:00:04.314Z,61.22
2022-09-05T06:03:25.541Z,61.17
2022-09-05T06:05:54.967Z,61.29
2022-09-05T06:12:46.325Z,61.05
2022-09-05T06:14:49.156Z,61.09
2022-09-05T06:15:10.658Z,61.15
2022-09-05T06:17:47.795Z,61.27
2022-09-05T06:22:06.468Z,61.17
2022-09-05T06:23:40.309Z,61.44
2022-09-05T06:26:25.430Z,61.24
2022-09-05T06:28:52.490Z,61.44
2022-09-05T06:31:30.763Z,61.22
2022-09-05T06:34:27.962Z,61.14
2022-09-05T06:37:07.555Z,61.50
2022-09-05T06:39:53.391Z,61.33
2022-09-05T06:42:42.530Z,61.34
2022-09-05T06:45:28.986Z,61.49
2022-09-05T06:48:17.121Z,61.55
2022-09-05T06:51:07.840Z,61.21
2022-09-05T06:53:43.504Z,61.48
2022-09-05T06:56:09.929Z,61.23
2022-09-05T06:58:39.119Z,61.33
2022-09-05T07:01:08.587Z,61.21
2022-09-05T07:03:52.264Z,61.22
2022-09-05T07:07:01.008Z,61.01
2022-09-05T07:09:35.251Z,60.82
2022-09-05T07:12:17.589Z,60.77
2022-09-05T07:15:11.540Z,60.82
2022-09-05T07:18:08.506Z,60.77
2022-09-05T07:21:15.806Z,60.85
2022-09-05T07:24:06.312Z,60.67
2022-09-05T07:26:51.498Z,60.86
2022-09-05T07:29:19.691Z,60.78
2022-09-05T07:31:55.039Z,60.63
2022-09-05T07:34:24.796Z,60.88
2022-09-05T07:37:13.879Z,60.69
2022-09-05T07:39:43.457Z,60.72
2022-09-05T07:42:14.860Z,60.54
2022-09-05T07:44:47.144Z,60.58
2022-09-05T07:47:20.896Z,60.48
2022-09-05T07:50:27.950Z,60.52
2022-09-05T07:56:50.274Z,60.10
2022-09-05T07:57:02.082Z,59.81
2022-09-05T07:58:20.332Z,60.27
2022-09-05T08:00:51.850Z,60.38
2022-09-05T08:03:24.045Z,59.88
2022-09-05T08:05:54.199Z,59.47
2022-09-05T08:08:23.076Z,59.03
2022-09-05T08:11:24.434Z,58.63
2022-09-05T08:13:46.427Z,58.78
2022-09-05T08:16:16.698Z,59.14
2022-09-05T08:18:45.167Z,59.30
2022-09-05T08:21:42.028Z,58.39
2022-09-05T08:24:24.695Z,59.15
2022-09-05T08:27:02.061Z,58.70
2022-09-05T08:29:37.021Z,58.87
2022-09-05T08:32:11.916Z,59.25
2022-09-05T08:34:44.478Z,58.79
2022-09-05T08:37:20.818Z,59.39
2022-09-05T08:39:57.554Z,59.09
2022-09-05T08:44:14.940Z,58.54
2022-09-05T08:46:41.094Z,57.56
2022-09-05T08:48:40.460Z,58.03
2022-09-05T08:51:12.681Z,58.08
2022-09-05T08:53:48.368Z,58.85
2022-09-05T08:56:21.398Z,58.43
2022-09-05T08:59:27.520Z,57.62
2022-09-05T09:02:46.905Z,58.13
2022-09-05T09:05:23.880Z,58.39
2022-09-05T09:08:16.510Z,58.52
2022-09-05T09:10:48.759Z,58.26
2022-09-05T09:13:27.508Z,58.09
2022-09-05T09:15:53.976Z,58.10
2022-09-05T09:18:21.471Z,57.32
2022-09-05T09:20:53.735Z,56.80
2022-09-05T09:23:38.802Z,57.19
2022-09-05T09:26:11.180Z,57.98
2022-09-05T09:28:51.396Z,57.77
2022-09-05T09:31:37.682Z,58.24
2022-09-05T09:34:06.880Z,57.81
2022-09-05T09:36:51.906Z,57.96
2022-09-05T09:39:38.282Z,58.29
2022-09-05T09:42:33.753Z,57.85
2022-09-05T09:45:27.809Z,57.54
2022-09-05T09:48:01.738Z,56.99
2022-09-05T09:50:34.236Z,57.08
2022-09-05T09:53:05.224Z,57.31
2022-09-05T09:55:41.082Z,57.85
2022-09-05T09:58:29.389Z,57.32
2022-09-05T10:01:20.163Z,56.88
2022-09-05T10:10:34.568Z,58.52
2022-09-05T10:10:45.730Z,57.75
2022-09-05T10:10:53.558Z,58.24
2022-09-05T10:12:53.230Z,57.87
2022-09-05T10:15:52.509Z,58.41
2022-09-05T10:18:18.900Z,57.30
2022-09-05T10:21:16.348Z,58.22
2022-09-05T10:23:46.770Z,57.84
2022-09-05T10:26:16.352Z,57.43
2022-09-05T10:29:11.852Z,57.70
2022-09-05T10:35:09.427Z,57.77
2022-09-05T10:35:17.316Z,57.93
2022-09-05T10:37:44.370Z,57.75
2022-09-05T10:40:12.648Z,58.20
2022-09-05T10:43:00.776Z,58.21
2022-09-05T10:45:33.318Z,58.19
2022-09-05T10:48:23.390Z,58.17
2022-09-05T10:50:54.762Z,57.92
2022-09-05T10:53:39.014Z,57.49
2022-09-05T10:56:19.616Z,57.80
2022-09-05T11:01:31.030Z,57.79
2022-09-05T11:02:28.150Z,57.66
2022-09-05T11:04:51.087Z,58.73
2022-09-05T11:07:36.314Z,58.36
2022-09-05T11:10:22.993Z,57.89
2022-09-05T11:13:00.117Z,59.01
2022-09-05T11:15:32.415Z,58.47
2022-09-05T11:18:04.783Z,58.46
2022-09-05T11:20:34.907Z,58.13
2022-09-05T11:23:04.828Z,58.17
2022-09-05T11:25:36.181Z,58.83
2022-09-05T11:28:13.654Z,58.60
2022-09-05T11:30:43.680Z,58.97
2022-09-05T11:36:56.500Z,59.52
2022-09-05T11:39:54.774Z,59.49
2022-09-05T11:40:06.456Z,58.81
2022-09-05T11:41:55.434Z,58.69
2022-09-05T11:44:26.459Z,57.69
2022-09-05T11:47:29.930Z,59.01
2022-09-05T11:50:05.835Z,59.09
2022-09-05T11:52:44.732Z,59.34
2022-09-05T11:55:21.093Z,58.89
2022-09-05T11:57:47.977Z,58.84
2022-09-05T12:00:32.567Z,59.11
2022-09-05T12:03:03.451Z,59.32
2022-09-05T12:05:59.283Z,59.73
2022-09-05T12:08:39.680Z,59.63
2022-09-05T12:11:21.617Z,59.91
2022-09-05T12:14:01.009Z,59.47
2022-09-05T12:17:00.391Z,59.47
2022-09-05T12:19:30.703Z,59.42
2022-09-05T12:22:09.620Z,59.56
2022-09-05T12:25:26.190Z,59.41
2022-09-05T12:29:27.934Z,59.44
2022-09-05T12:31:58.841Z,59.29
2022-09-05T12:36:06.057Z,59.32
2022-09-05T12:40:55.848Z,59.75
2022-09-05T12:40:59.268Z,59.71
2022-09-05T12:42:55.999Z,59.37
2022-09-05T12:45:37.140Z,59.76
2022-09-05T12:48:22.419Z,59.21
2022-09-05T12:50:57.022Z,58.62
2022-09-05T12:53:24.893Z,59.84
2022-09-05T12:56:47.962Z,59.19
2022-09-05T13:03:06.706Z,59.75
2022-09-05T13:03:14.118Z,59.65
2022-09-05T13:04:30.854Z,59.88
2022-09-05T13:07:01.126Z,60.20
2022-09-05T13:11:39.237Z,59.95
2022-09-05T13:14:53.613Z,59.52
2022-09-05T13:15:38.489Z,59.99
2022-09-05T13:18:15.914Z,59.79
2022-09-05T13:20:51.555Z,59.51
2022-09-05T13:23:37.280Z,59.60
2022-09-05T13:26:32.499Z,59.67
2022-09-05T13:29:10.596Z,60.20
2022-09-05T13:38:00.764Z,60.47
2022-09-05T13:38:07.905Z,59.42
2022-09-05T13:38:12.202Z,59.77
2022-09-05T13:40:22.988Z,59.68
2022-09-05T13:43:18.739Z,59.62
2022-09-05T13:46:04.980Z,59.30
2022-09-05T13:51:45.654Z,59.73
2022-09-05T13:54:16.397Z,59.76
2022-09-05T13:56:48.553Z,59.42
2022-09-05T13:59:16.211Z,59.55
2022-09-05T14:02:23.813Z,59.37
2022-09-05T14:05:17.810Z,59.18
2022-09-05T14:07:50.160Z,59.83
2022-09-05T14:10:52.059Z,59.54
2022-09-05T14:13:18.582Z,59.78
2022-09-05T14:16:08.232Z,59.65
2022-09-05T14:19:02.267Z,59.56
2022-09-05T14:21:30.608Z,59.57
2022-09-05T14:24:05.622Z,59.59
2022-09-05T14:26:35.955Z,59.56
2022-09-05T14:29:20.366Z,58.89
2022-09-05T14:37:35.381Z,59.12
2022-09-05T14:37:43.659Z,59.29
2022-09-05T14:38:09.444Z,59.52
2022-09-05T14:40:58.594Z,59.51
2022-09-05T14:43:37.666Z,59.80
2022-09-05T14:46:21.118Z,60.03
2022-09-05T14:48:55.210Z,60.70
2022-09-05T14:51:28.770Z,60.55
2022-09-05T14:54:04.944Z,60.59
2022-09-05T14:59:04.232Z,60.00
2022-09-05T15:02:50.349Z,57.97
2022-09-05T15:03:02.227Z,58.21
2022-09-05T15:05:40.005Z,58.77
2022-09-05T15:08:20.318Z,59.18
2022-09-05T15:12:16.830Z,58.54
2022-09-05T15:13:51.805Z,58.76
2022-09-05T15:16:20.253Z,58.99
2022-09-05T15:18:47.139Z,59.94
2022-09-05T15:21:17.824Z,59.71
2022-09-05T15:24:03.890Z,59.64
2022-09-05T15:26:31.469Z,60.06
2022-09-05T15:29:27.442Z,60.09
2022-09-05T15:32:10.786Z,59.96
2022-09-05T15:34:38.562Z,59.96
2022-09-05T15:37:22.056Z,60.30
2022-09-05T15:39:59.496Z,59.98
2022-09-05T15:42:28.147Z,60.19
2022-09-05T15:45:09.815Z,60.27
2022-09-05T15:47:39.512Z,60.13
2022-09-05T15:50:21.370Z,59.77
2022-09-05T15:52:53.550Z,59.39
2022-09-05T15:55:23.756Z,59.20
2022-09-05T15:57:51.870Z,60.16
2022-09-05T16:00:30.429Z,59.65
2022-09-05T16:03:23.111Z,59.52
2022-09-05T16:10:27.742Z,60.19
2022-09-05T16:10:59.084Z,60.30
2022-09-05T16:14:23.697Z,59.60
2022-09-05T16:23:11.732Z,59.40
2022-09-05T16:23:21.114Z,58.56
2022-09-05T16:23:24.938Z,58.85
2022-09-05T16:25:38.869Z,58.38
2022-09-05T16:28:06.534Z,59.42
2022-09-05T16:30:37.298Z,59.72
2022-09-05T16:33:06.150Z,59.39
2022-09-05T16:35:35.983Z,59.44
2022-09-05T16:38:12.782Z,59.77
2022-09-05T16:40:44.911Z,58.70
2022-09-05T16:43:16.349Z,59.06
2022-09-05T16:45:54.969Z,58.39
2022-09-05T16:48:27.426Z,58.49
2022-09-05T16:51:08.620Z,58.83
2022-09-05T16:53:58.709Z,58.80
2022-09-05T16:56:36.978Z,58.85
2022-09-05T16:59:08.938Z,59.25
2022-09-05T17:02:06.428Z,58.88
2022-09-05T17:04:42.694Z,58.54
2022-09-05T17:07:58.613Z,59.10
2022-09-05T17:10:31.280Z,59.01
2022-09-05T17:12:57.721Z,59.13
2022-09-05T17:15:35.511Z,59.37
2022-09-05T17:18:22.112Z,59.23
2022-09-05T17:20:53.317Z,59.26
2022-09-05T17:29:18.782Z,59.54
2022-09-05T17:29:37.838Z,59.57
2022-09-05T17:30:32.183Z,59.48
2022-09-05T17:32:00.209Z,59.50
2022-09-05T17:34:36.839Z,59.19
2022-09-05T17:37:11.797Z,59.40
2022-09-05T17:39:55.131Z,59.75
2022-09-05T17:42:48.085Z,59.80
2022-09-05T17:45:37.583Z,59.70
2022-09-05T17:48:04.639Z,59.85
2022-09-05T17:50:33.201Z,59.70
2022-09-05T17:53:25.860Z,59.66
2022-09-05T17:55:49.334Z,60.24
2022-09-05T17:58:26.007Z,60.29
2022-09-05T18:01:28.841Z,60.30
2022-09-05T18:04:09.758Z,60.50
2022-09-05T18:06:51.065Z,60.56
2022-09-05T18:09:48.227Z,60.44
2022-09-05T18:12:45.721Z,60.70
2022-09-05T18:15:38.202Z,60.80
2022-09-05T18:18:31.280Z,60.71
2022-09-05T18:21:21.467Z,60.06
2022-09-05T18:23:54.432Z,59.66
2022-09-05T18:26:23.276Z,59.70
2022-09-05T18:29:15.075Z,59.62
2022-09-05T18:31:43.531Z,60.36
2022-09-05T18:34:14.598Z,60.43
2022-09-05T18:36:45.034Z,60.41
2022-09-05T18:39:24.359Z,59.98
2022-09-05T18:41:54.068Z,60.08
2022-09-05T18:44:21.252Z,60.23
2022-09-05T18:46:49.816Z,59.86
2022-09-05T18:50:25.252Z,59.87
2022-09-05T18:52:24.614Z,59.92
2022-09-05T18:56:09.172Z,59.97
2022-09-05T18:57:45.143Z,59.85
2022-09-05T19:00:13.911Z,60.01
2022-09-05T19:02:54.172Z,60.31
2022-09-05T19:05:38.179Z,60.47
2022-09-05T19:08:13.479Z,60.13
2022-09-05T19:10:59.493Z,60.17
2022-09-05T19:13:44.610Z,60.16
2022-09-05T19:16:43.629Z,60.25
2022-09-05T19:19:16.266Z,60.03
2022-09-05T19:21:45.971Z,60.48
2022-09-05T19:24:14.123Z,60.19
2022-09-05T19:26:40.826Z,60.31
2022-09-05T19:36:56.640Z,60.59
2022-09-05T19:37:04.778Z,60.29
2022-09-05T19:37:05.617Z,60.62
2022-09-05T19:37:47.625Z,60.55
2022-09-05T19:47:25.473Z,60.63
2022-09-05T19:47:35.917Z,60.39
2022-09-05T19:47:55.729Z,60.47
2022-09-05T19:49:11.854Z,60.68
2022-09-05T19:51:41.088Z,60.56
2022-09-05T19:54:08.216Z,60.44
2022-09-05T19:56:39.635Z,60.62
2022-09-05T19:59:17.067Z,60.68
2022-09-05T20:01:44.420Z,60.74
2022-09-05T20:04:16.380Z,60.86
2022-09-05T20:06:42.879Z,61.01
2022-09-05T20:09:14.172Z,60.88
2022-09-05T20:11:45.715Z,61.02
2022-09-05T20:14:23.834Z,61.01
2022-09-05T20:16:52.427Z,61.04
2022-09-05T20:19:23.475Z,60.93
2022-09-05T20:21:57.038Z,60.86
2022-09-05T20:24:24.185Z,61.21
2022-09-05T20:26:50.815Z,61.12
2022-09-05T20:29:26.352Z,61.11
2022-09-05T20:32:12.760Z,61.10
2022-09-05T20:37:47.488Z,61.36
2022-09-05T20:43:17.663Z,61.19
2022-09-05T20:43:21.191Z,61.17
2022-09-05T20:43:26.647Z,61.29
2022-09-05T20:46:05.252Z,61.14
2022-09-05T20:54:13.078Z,61.30
2022-09-05T20:54:15.606Z,61.32
2022-09-05T20:54:34.634Z,61.47
2022-09-05T20:57:12.357Z,61.67
2022-09-05T20:59:41.486Z,61.19
2022-09-05T21:02:18.697Z,61.72
2022-09-05T21:04:53.710Z,61.26
2022-09-05T21:07:25.265Z,61.63
2022-09-05T21:10:02.648Z,61.79
2022-09-05T21:12:30.700Z,61.73
2022-09-05T21:15:35.439Z,61.68
2022-09-05T21:18:15.054Z,61.63
2022-09-05T21:20:41.450Z,61.61
2022-09-05T21:23:27.069Z,61.57
2022-09-05T21:25:55.078Z,61.85
2022-09-05T21:28:36.479Z,61.99
2022-09-05T21:31:06.358Z,61.65
2022-09-05T21:33:45.021Z,61.81
2022-09-05T21:36:14.499Z,61.83
2022-09-05T21:38:41.809Z,61.82
2022-09-05T21:41:08.327Z,62.15
2022-09-05T21:47:33.203Z,61.90
2022-09-05T21:47:46.516Z,61.64
2022-09-05T21:49:14.193Z,61.73
2022-09-05T21:51:40.570Z,61.88
2022-09-05T21:59:16.075Z,61.78
2022-09-05T21:59:27.216Z,61.53
2022-09-05T21:59:55.557Z,61.71
2022-09-05T22:02:23.175Z,61.55
2022-09-05T22:04:54.070Z,61.71
2022-09-05T22:07:31.913Z,61.61
2022-09-05T22:09:59.436Z,61.66
2022-09-05T22:12:35.722Z,61.36
2022-09-05T22:15:26.783Z,61.75
2022-09-05T22:17:50.941Z,61.49
2022-09-05T22:20:18.862Z,61.45
2022-09-05T22:22:45.326Z,61.50
2022-09-05T22:25:28.639Z,61.45
2022-09-05T22:27:59.785Z,61.56
2022-09-05T22:30:27.086Z,61.49
2022-09-05T22:32:53.615Z,61.50
2022-09-05T22:35:28.410Z,61.65
2022-09-05T22:38:02.982Z,61.50
2022-09-05T22:40:31.665Z,61.65
2022-09-05T22:42:59.547Z,61.78
2022-09-05T22:45:26.455Z,61.50
2022-09-05T22:47:53.585Z,61.90
2022-09-05T22:50:20.333Z,61.77
2022-09-05T22:52:47.099Z,61.93
2022-09-05T22:55:13.559Z,61.82
2022-09-05T22:57:40.130Z,61.91
2022-09-05T23:00:07.517Z,61.80
2022-09-05T23:02:35.171Z,62.01
2022-09-05T23:05:05.130Z,62.16
2022-09-05T23:07:32.721Z,62.01
2022-09-05T23:09:59.499Z,62.37
2022-09-05T23:12:25.937Z,61.96
2022-09-05T23:14:52.533Z,62.21
2022-09-05T23:17:18.914Z,62.12
2022-09-05T23:19:45.425Z,62.32
2022-09-05T23:22:11.879Z,62.22
2022-09-05T23:24:38.342Z,62.34
2022-09-05T23:27:04.782Z,62.42
2022-09-05T23:29:31.229Z,62.36
2022-09-05T23:31:57.665Z,62.22
2022-09-05T23:34:25.574Z,62.35
2022-09-05T23:36:52.030Z,62.10
2022-09-05T23:39:18.457Z,62.45
2022-09-05T23:41:45.015Z,62.41
2022-09-05T23:44:11.974Z,62.08
2022-09-05T23:46:40.384Z,62.12
2022-09-05T23:49:07.136Z,62.12
2022-09-05T23:51:33.601Z,62.16
2022-09-05T23:53:59.984Z,62.01
2022-09-05T23:56:26.414Z,61.97
2022-09-05T23:58:52.846Z,61.91
